Philadelphia, Pennsylvania
Current Conditions -  °F | °C
As of 6:54 PM on Wednesday 22 Oct 2014 (Local Time) from KPHL Reporting Station
Moderate Rain Moderate Rain  
Wind Chill: 55°   Ceiling: 3200
Heat Index: 55°   Visibility: 10mi
Dew Point: 50°   Wind: 16mph
Humidity: 83%   Direction: 350°N
Pressure: 29.85"   Gusts: 32mph
Location:  39.95°N, 75.16°W
Report Text: KPHL 222254Z 35014G28KT 10SM RA FEW025 OVC032 13/10 A2985 RMK AO2 PK WND 35028/2253 SLP107 P0001 T01280100 $
Loading
Personal Weather Stations






























Interactive Weather Map
Tropical Storm Tracking
New forecast layout! Learn more

10-Day Weather Forecast

Advertisements
Track Severe Weather on mobile